sensor_id;sensor_type;location;lat;lon;timestamp;P1;durP1;ratioP1;P2;durP2;ratioP2
57752;SDS011;43583;53.132;6.574;2023-07-16T00:00:09;4.03;;;0.50;;
57752;SDS011;43583;53.132;6.574;2023-07-16T00:02:36;3.75;;;0.50;;
57752;SDS011;43583;53.132;6.574;2023-07-16T00:05:03;2.95;;;0.88;;
57752;SDS011;43583;53.132;6.574;2023-07-16T00:07:29;5.20;;;0.52;;
57752;SDS011;43583;53.132;6.574;2023-07-16T00:09:54;2.75;;;0.50;;
57752;SDS011;43583;53.132;6.574;2023-07-16T00:12:20;4.30;;;0.50;;
57752;SDS011;43583;53.132;6.574;2023-07-16T00:14:45;5.03;;;0.60;;
57752;SDS011;43583;53.132;6.574;2023-07-16T00:17:12;2.83;;;0.60;;
57752;SDS011;43583;53.132;6.574;2023-07-16T00:19:38;5.70;;;0.63;;
57752;SDS011;43583;53.132;6.574;2023-07-16T00:22:03;5.95;;;0.60;;
57752;SDS011;43583;53.132;6.574;2023-07-16T00:24:29;1.95;;;0.30;;
57752;SDS011;43583;53.132;6.574;2023-07-16T00:26:54;6.82;;;0.70;;
57752;SDS011;43583;53.132;6.574;2023-07-16T00:29:20;3.03;;;0.90;;
57752;SDS011;43583;53.132;6.574;2023-07-16T00:31:45;12.00;;;1.05;;
57752;SDS011;43583;53.132;6.574;2023-07-16T00:34:11;3.38;;;0.60;;
57752;SDS011;43583;53.132;6.574;2023-07-16T00:36:38;1.52;;;0.52;;
57752;SDS011;43583;53.132;6.574;2023-07-16T00:39:04;4.40;;;0.40;;
57752;SDS011;43583;53.132;6.574;2023-07-16T00:41:30;2.60;;;0.80;;
57752;SDS011;43583;53.132;6.574;2023-07-16T00:43:55;4.95;;;0.57;;
57752;SDS011;43583;53.132;6.574;2023-07-16T00:46:21;3.05;;;0.80;;
57752;SDS011;43583;53.132;6.574;2023-07-16T00:48:47;4.00;;;0.43;;
57752;SDS011;43583;53.132;6.574;2023-07-16T00:51:13;5.50;;;0.63;;
57752;SDS011;43583;53.132;6.574;2023-07-16T00:53:39;5.90;;;1.10;;
57752;SDS011;43583;53.132;6.574;2023-07-16T00:56:07;4.35;;;1.02;;
57752;SDS011;43583;53.132;6.574;2023-07-16T00:58:33;6.35;;;0.82;;
57752;SDS011;43583;53.132;6.574;2023-07-16T01:00:59;2.85;;;1.08;;
57752;SDS011;43583;53.132;6.574;2023-07-16T01:03:24;4.22;;;0.68;;
57752;SDS011;43583;53.132;6.574;2023-07-16T01:05:59;5.38;;;0.70;;
57752;SDS011;43583;53.132;6.574;2023-07-16T01:08:35;4.30;;;0.93;;
57752;SDS011;43583;53.132;6.574;2023-07-16T01:11:07;8.15;;;0.65;;
57752;SDS011;43583;53.132;6.574;2023-07-16T01:13:34;6.65;;;0.90;;
57752;SDS011;43583;53.132;6.574;2023-07-16T01:16:00;3.95;;;0.57;;
57752;SDS011;43583;53.132;6.574;2023-07-16T01:18:26;6.00;;;0.70;;
57752;SDS011;43583;53.132;6.574;2023-07-16T01:20:51;4.13;;;0.50;;
57752;SDS011;43583;53.132;6.574;2023-07-16T01:31:34;3.50;;;0.50;;
57752;SDS011;43583;53.132;6.574;2023-07-16T01:34:00;4.05;;;1.02;;
57752;SDS011;43583;53.132;6.574;2023-07-16T01:36:29;3.38;;;0.47;;
57752;SDS011;43583;53.132;6.574;2023-07-16T01:38:57;2.47;;;0.47;;
57752;SDS011;43583;53.132;6.574;2023-07-16T01:41:22;4.40;;;0.30;;
57752;SDS011;43583;53.132;6.574;2023-07-16T01:43:49;3.17;;;0.40;;
57752;SDS011;43583;53.132;6.574;2023-07-16T01:46:15;4.18;;;0.50;;
57752;SDS011;43583;53.132;6.574;2023-07-16T01:48:41;3.63;;;0.40;;
57752;SDS011;43583;53.132;6.574;2023-07-16T01:51:06;6.93;;;0.57;;
57752;SDS011;43583;53.132;6.574;2023-07-16T01:53:32;1.77;;;0.50;;
57752;SDS011;43583;53.132;6.574;2023-07-16T01:55:58;6.03;;;0.40;;
57752;SDS011;43583;53.132;6.574;2023-07-16T01:58:27;3.45;;;0.65;;
57752;SDS011;43583;53.132;6.574;2023-07-16T02:00:52;3.55;;;0.50;;
57752;SDS011;43583;53.132;6.574;2023-07-16T02:03:18;5.70;;;0.93;;
57752;SDS011;43583;53.132;6.574;2023-07-16T02:05:43;4.53;;;0.90;;
57752;SDS011;43583;53.132;6.574;2023-07-16T02:08:09;6.47;;;0.35;;
57752;SDS011;43583;53.132;6.574;2023-07-16T02:10:34;5.00;;;0.80;;
57752;SDS011;43583;53.132;6.574;2023-07-16T02:13:00;2.13;;;0.43;;
57752;SDS011;43583;53.132;6.574;2023-07-16T02:15:26;4.85;;;0.50;;
57752;SDS011;43583;53.132;6.574;2023-07-16T02:17:51;4.28;;;0.50;;
57752;SDS011;43583;53.132;6.574;2023-07-16T02:20:17;4.03;;;0.57;;
57752;SDS011;43583;53.132;6.574;2023-07-16T02:22:42;5.07;;;0.75;;
57752;SDS011;43583;53.132;6.574;2023-07-16T02:25:08;9.02;;;0.77;;
57752;SDS011;43583;53.132;6.574;2023-07-16T02:27:34;4.50;;;0.65;;
57752;SDS011;43583;53.132;6.574;2023-07-16T02:29:59;4.43;;;0.90;;
57752;SDS011;43583;53.132;6.574;2023-07-16T02:32:25;4.47;;;0.60;;
57752;SDS011;43583;53.132;6.574;2023-07-16T02:34:50;4.68;;;1.60;;
57752;SDS011;43583;53.132;6.574;2023-07-16T02:37:16;4.55;;;0.77;;
57752;SDS011;43583;53.132;6.574;2023-07-16T02:39:44;4.50;;;0.75;;
57752;SDS011;43583;53.132;6.574;2023-07-16T02:42:11;5.68;;;1.20;;
57752;SDS011;43583;53.132;6.574;2023-07-16T02:44:37;3.60;;;0.90;;
57752;SDS011;43583;53.132;6.574;2023-07-16T02:47:10;5.13;;;0.88;;
57752;SDS011;43583;53.132;6.574;2023-07-16T02:49:36;4.35;;;1.90;;
57752;SDS011;43583;53.132;6.574;2023-07-16T02:52:02;6.43;;;1.33;;
57752;SDS011;43583;53.132;6.574;2023-07-16T02:54:28;5.68;;;1.17;;
57752;SDS011;43583;53.132;6.574;2023-07-16T02:56:53;5.15;;;0.95;;
57752;SDS011;43583;53.132;6.574;2023-07-16T02:59:19;2.28;;;0.95;;
57752;SDS011;43583;53.132;6.574;2023-07-16T03:01:44;5.93;;;1.08;;
57752;SDS011;43583;53.132;6.574;2023-07-16T03:04:10;4.10;;;1.05;;
57752;SDS011;43583;53.132;6.574;2023-07-16T03:06:35;2.40;;;0.80;;
57752;SDS011;43583;53.132;6.574;2023-07-16T03:09:01;7.35;;;0.93;;
57752;SDS011;43583;53.132;6.574;2023-07-16T03:11:27;5.43;;;0.82;;
57752;SDS011;43583;53.132;6.574;2023-07-16T03:13:53;5.93;;;0.98;;
57752;SDS011;43583;53.132;6.574;2023-07-16T03:16:18;3.97;;;1.42;;
57752;SDS011;43583;53.132;6.574;2023-07-16T03:18:44;4.95;;;1.17;;
57752;SDS011;43583;53.132;6.574;2023-07-16T03:21:13;5.03;;;1.20;;
57752;SDS011;43583;53.132;6.574;2023-07-16T03:23:39;5.70;;;1.50;;
57752;SDS011;43583;53.132;6.574;2023-07-16T03:26:04;5.78;;;0.82;;
57752;SDS011;43583;53.132;6.574;2023-07-16T03:28:30;4.55;;;1.42;;
57752;SDS011;43583;53.132;6.574;2023-07-16T03:30:56;3.53;;;1.30;;
57752;SDS011;43583;53.132;6.574;2023-07-16T03:33:21;4.65;;;0.98;;
57752;SDS011;43583;53.132;6.574;2023-07-16T03:35:48;5.82;;;1.00;;
57752;SDS011;43583;53.132;6.574;2023-07-16T03:38:14;3.83;;;1.17;;
57752;SDS011;43583;53.132;6.574;2023-07-16T03:40:41;3.53;;;1.17;;
57752;SDS011;43583;53.132;6.574;2023-07-16T03:43:12;4.05;;;1.88;;
57752;SDS011;43583;53.132;6.574;2023-07-16T03:45:39;5.22;;;1.30;;
57752;SDS011;43583;53.132;6.574;2023-07-16T03:48:05;3.28;;;1.23;;
57752;SDS011;43583;53.132;6.574;2023-07-16T03:50:30;6.32;;;1.05;;
57752;SDS011;43583;53.132;6.574;2023-07-16T03:52:56;6.22;;;1.10;;
57752;SDS011;43583;53.132;6.574;2023-07-16T03:55:21;7.25;;;1.45;;
57752;SDS011;43583;53.132;6.574;2023-07-16T03:57:47;5.15;;;1.48;;
57752;SDS011;43583;53.132;6.574;2023-07-16T04:00:13;6.22;;;1.60;;
57752;SDS011;43583;53.132;6.574;2023-07-16T04:02:38;7.10;;;2.15;;
57752;SDS011;43583;53.132;6.574;2023-07-16T04:05:04;6.20;;;1.17;;
57752;SDS011;43583;53.132;6.574;2023-07-16T04:07:30;7.18;;;1.27;;
57752;SDS011;43583;53.132;6.574;2023-07-16T04:09:55;4.38;;;1.83;;
57752;SDS011;43583;53.132;6.574;2023-07-16T04:12:21;4.40;;;1.08;;
57752;SDS011;43583;53.132;6.574;2023-07-16T04:14:46;6.05;;;1.17;;
57752;SDS011;43583;53.132;6.574;2023-07-16T04:17:12;6.93;;;1.77;;
57752;SDS011;43583;53.132;6.574;2023-07-16T04:19:38;8.88;;;1.48;;
57752;SDS011;43583;53.132;6.574;2023-07-16T04:22:04;7.78;;;1.30;;
57752;SDS011;43583;53.132;6.574;2023-07-16T04:24:29;5.78;;;1.58;;
57752;SDS011;43583;53.132;6.574;2023-07-16T04:26:55;4.60;;;1.33;;
57752;SDS011;43583;53.132;6.574;2023-07-16T04:29:21;6.00;;;1.27;;
57752;SDS011;43583;53.132;6.574;2023-07-16T04:31:47;8.38;;;1.95;;
57752;SDS011;43583;53.132;6.574;2023-07-16T04:34:13;7.55;;;1.85;;
57752;SDS011;43583;53.132;6.574;2023-07-16T04:36:38;5.20;;;1.98;;
57752;SDS011;43583;53.132;6.574;2023-07-16T04:39:04;5.07;;;1.35;;
57752;SDS011;43583;53.132;6.574;2023-07-16T04:41:30;6.00;;;2.30;;
57752;SDS011;43583;53.132;6.574;2023-07-16T04:43:56;6.38;;;1.38;;
57752;SDS011;43583;53.132;6.574;2023-07-16T04:46:21;9.70;;;2.03;;
57752;SDS011;43583;53.132;6.574;2023-07-16T04:48:47;4.50;;;1.88;;
57752;SDS011;43583;53.132;6.574;2023-07-16T04:51:12;4.93;;;1.08;;
57752;SDS011;43583;53.132;6.574;2023-07-16T04:53:38;8.15;;;1.73;;
57752;SDS011;43583;53.132;6.574;2023-07-16T04:56:03;8.38;;;1.80;;
57752;SDS011;43583;53.132;6.574;2023-07-16T04:58:30;6.10;;;1.60;;
57752;SDS011;43583;53.132;6.574;2023-07-16T05:00:55;8.27;;;1.35;;
57752;SDS011;43583;53.132;6.574;2023-07-16T05:03:21;8.45;;;1.40;;
57752;SDS011;43583;53.132;6.574;2023-07-16T05:05:46;5.72;;;1.55;;
57752;SDS011;43583;53.132;6.574;2023-07-16T05:08:12;5.75;;;0.90;;
57752;SDS011;43583;53.132;6.574;2023-07-16T05:10:37;4.88;;;1.35;;
57752;SDS011;43583;53.132;6.574;2023-07-16T05:13:03;3.08;;;1.00;;
57752;SDS011;43583;53.132;6.574;2023-07-16T05:15:29;4.18;;;1.13;;
57752;SDS011;43583;53.132;6.574;2023-07-16T05:17:56;5.15;;;1.10;;
57752;SDS011;43583;53.132;6.574;2023-07-16T05:20:22;4.13;;;1.20;;
57752;SDS011;43583;53.132;6.574;2023-07-16T05:22:48;3.85;;;1.25;;
57752;SDS011;43583;53.132;6.574;2023-07-16T05:25:14;6.03;;;0.90;;
57752;SDS011;43583;53.132;6.574;2023-07-16T05:27:39;4.85;;;1.40;;
57752;SDS011;43583;53.132;6.574;2023-07-16T05:30:05;5.15;;;0.90;;
57752;SDS011;43583;53.132;6.574;2023-07-16T05:32:31;3.60;;;1.00;;
57752;SDS011;43583;53.132;6.574;2023-07-16T05:34:56;2.40;;;0.93;;
57752;SDS011;43583;53.132;6.574;2023-07-16T05:37:22;2.80;;;0.77;;
57752;SDS011;43583;53.132;6.574;2023-07-16T05:39:48;6.50;;;0.80;;
57752;SDS011;43583;53.132;6.574;2023-07-16T05:42:13;2.75;;;0.50;;
57752;SDS011;43583;53.132;6.574;2023-07-16T05:44:39;4.45;;;1.17;;
57752;SDS011;43583;53.132;6.574;2023-07-16T05:47:05;5.63;;;0.98;;
57752;SDS011;43583;53.132;6.574;2023-07-16T05:49:30;1.88;;;0.55;;
57752;SDS011;43583;53.132;6.574;2023-07-16T05:51:56;4.20;;;0.90;;
57752;SDS011;43583;53.132;6.574;2023-07-16T05:54:22;6.13;;;0.63;;
57752;SDS011;43583;53.132;6.574;2023-07-16T05:56:48;5.25;;;1.17;;
57752;SDS011;43583;53.132;6.574;2023-07-16T05:59:14;3.75;;;0.50;;
57752;SDS011;43583;53.132;6.574;2023-07-16T06:01:39;5.15;;;0.63;;
57752;SDS011;43583;53.132;6.574;2023-07-16T06:04:05;4.38;;;0.80;;
57752;SDS011;43583;53.132;6.574;2023-07-16T06:06:30;3.88;;;0.80;;
57752;SDS011;43583;53.132;6.574;2023-07-16T06:08:56;4.40;;;0.57;;
57752;SDS011;43583;53.132;6.574;2023-07-16T06:11:22;3.70;;;1.02;;
57752;SDS011;43583;53.132;6.574;2023-07-16T06:13:47;3.63;;;0.60;;
57752;SDS011;43583;53.132;6.574;2023-07-16T06:16:13;2.58;;;0.98;;
57752;SDS011;43583;53.132;6.574;2023-07-16T06:18:38;3.72;;;0.75;;
57752;SDS011;43583;53.132;6.574;2023-07-16T06:21:04;3.55;;;0.80;;
57752;SDS011;43583;53.132;6.574;2023-07-16T06:23:29;2.78;;;0.70;;
57752;SDS011;43583;53.132;6.574;2023-07-16T06:25:55;2.05;;;0.60;;
57752;SDS011;43583;53.132;6.574;2023-07-16T06:28:21;4.00;;;0.80;;
57752;SDS011;43583;53.132;6.574;2023-07-16T06:30:47;5.13;;;0.82;;
57752;SDS011;43583;53.132;6.574;2023-07-16T06:33:13;3.45;;;1.08;;
57752;SDS011;43583;53.132;6.574;2023-07-16T06:35:39;4.10;;;0.93;;
57752;SDS011;43583;53.132;6.574;2023-07-16T06:38:04;4.82;;;0.85;;
57752;SDS011;43583;53.132;6.574;2023-07-16T06:40:30;4.40;;;1.15;;
57752;SDS011;43583;53.132;6.574;2023-07-16T06:42:56;4.40;;;0.82;;
57752;SDS011;43583;53.132;6.574;2023-07-16T06:45:22;7.43;;;1.00;;
57752;SDS011;43583;53.132;6.574;2023-07-16T06:47:47;7.22;;;1.27;;
57752;SDS011;43583;53.132;6.574;2023-07-16T06:50:13;3.92;;;1.13;;
57752;SDS011;43583;53.132;6.574;2023-07-16T06:52:39;4.50;;;1.48;;
57752;SDS011;43583;53.132;6.574;2023-07-16T06:55:04;4.07;;;0.88;;
57752;SDS011;43583;53.132;6.574;2023-07-16T06:57:30;6.93;;;1.33;;
57752;SDS011;43583;53.132;6.574;2023-07-16T06:59:56;6.53;;;1.10;;
57752;SDS011;43583;53.132;6.574;2023-07-16T07:02:21;5.32;;;1.20;;
57752;SDS011;43583;53.132;6.574;2023-07-16T07:04:47;5.03;;;1.40;;
57752;SDS011;43583;53.132;6.574;2023-07-16T07:07:12;5.05;;;1.67;;
57752;SDS011;43583;53.132;6.574;2023-07-16T07:09:38;4.80;;;1.50;;
57752;SDS011;43583;53.132;6.574;2023-07-16T07:12:04;5.60;;;1.70;;
57752;SDS011;43583;53.132;6.574;2023-07-16T07:14:29;7.15;;;1.42;;
57752;SDS011;43583;53.132;6.574;2023-07-16T07:16:55;4.18;;;1.30;;
57752;SDS011;43583;53.132;6.574;2023-07-16T07:19:21;4.75;;;1.45;;
57752;SDS011;43583;53.132;6.574;2023-07-16T07:21:46;5.57;;;1.55;;
57752;SDS011;43583;53.132;6.574;2023-07-16T07:24:12;4.18;;;1.00;;
57752;SDS011;43583;53.132;6.574;2023-07-16T07:26:38;7.10;;;1.55;;
57752;SDS011;43583;53.132;6.574;2023-07-16T07:29:03;9.52;;;1.80;;
57752;SDS011;43583;53.132;6.574;2023-07-16T07:31:29;4.78;;;0.93;;
57752;SDS011;43583;53.132;6.574;2023-07-16T07:33:54;5.63;;;1.63;;
57752;SDS011;43583;53.132;6.574;2023-07-16T07:36:22;3.65;;;1.63;;
57752;SDS011;43583;53.132;6.574;2023-07-16T07:38:48;2.17;;;1.25;;
57752;SDS011;43583;53.132;6.574;2023-07-16T07:41:13;4.00;;;1.30;;
57752;SDS011;43583;53.132;6.574;2023-07-16T07:43:39;3.70;;;1.40;;
57752;SDS011;43583;53.132;6.574;2023-07-16T07:46:04;4.72;;;1.10;;
57752;SDS011;43583;53.132;6.574;2023-07-16T07:48:31;2.65;;;0.95;;
57752;SDS011;43583;53.132;6.574;2023-07-16T07:50:56;3.10;;;0.98;;
57752;SDS011;43583;53.132;6.574;2023-07-16T07:53:22;3.65;;;1.02;;
57752;SDS011;43583;53.132;6.574;2023-07-16T07:55:47;3.08;;;1.42;;
57752;SDS011;43583;53.132;6.574;2023-07-16T07:58:13;8.27;;;1.20;;
57752;SDS011;43583;53.132;6.574;2023-07-16T08:00:39;2.95;;;1.15;;
57752;SDS011;43583;53.132;6.574;2023-07-16T08:03:04;3.40;;;1.10;;
57752;SDS011;43583;53.132;6.574;2023-07-16T08:05:31;5.47;;;1.52;;
57752;SDS011;43583;53.132;6.574;2023-07-16T08:07:56;4.85;;;1.55;;
57752;SDS011;43583;53.132;6.574;2023-07-16T08:10:22;3.63;;;1.08;;
57752;SDS011;43583;53.132;6.574;2023-07-16T08:12:48;2.10;;;0.90;;
57752;SDS011;43583;53.132;6.574;2023-07-16T08:15:13;2.72;;;0.90;;
57752;SDS011;43583;53.132;6.574;2023-07-16T08:17:43;5.40;;;0.95;;
57752;SDS011;43583;53.132;6.574;2023-07-16T08:20:10;3.92;;;1.25;;
57752;SDS011;43583;53.132;6.574;2023-07-16T08:22:36;4.32;;;1.30;;
57752;SDS011;43583;53.132;6.574;2023-07-16T08:25:01;6.00;;;1.58;;
57752;SDS011;43583;53.132;6.574;2023-07-16T08:27:28;4.38;;;1.38;;
57752;SDS011;43583;53.132;6.574;2023-07-16T08:29:54;2.47;;;1.00;;
57752;SDS011;43583;53.132;6.574;2023-07-16T08:32:20;3.88;;;1.20;;
57752;SDS011;43583;53.132;6.574;2023-07-16T08:34:46;2.90;;;1.27;;
57752;SDS011;43583;53.132;6.574;2023-07-16T08:37:12;5.28;;;1.73;;
57752;SDS011;43583;53.132;6.574;2023-07-16T08:39:38;6.53;;;1.98;;
57752;SDS011;43583;53.132;6.574;2023-07-16T08:42:04;4.55;;;1.52;;
57752;SDS011;43583;53.132;6.574;2023-07-16T08:44:30;5.05;;;1.00;;
57752;SDS011;43583;53.132;6.574;2023-07-16T08:46:55;2.88;;;1.40;;
57752;SDS011;43583;53.132;6.574;2023-07-16T08:49:22;7.22;;;1.75;;
57752;SDS011;43583;53.132;6.574;2023-07-16T08:51:48;3.72;;;1.33;;
57752;SDS011;43583;53.132;6.574;2023-07-16T08:54:14;2.85;;;1.63;;
57752;SDS011;43583;53.132;6.574;2023-07-16T08:56:43;3.05;;;0.98;;
57752;SDS011;43583;53.132;6.574;2023-07-16T08:59:08;6.10;;;1.48;;
57752;SDS011;43583;53.132;6.574;2023-07-16T09:01:35;6.20;;;1.48;;
57752;SDS011;43583;53.132;6.574;2023-07-16T09:04:02;3.13;;;1.17;;
57752;SDS011;43583;53.132;6.574;2023-07-16T09:06:27;4.18;;;1.13;;
57752;SDS011;43583;53.132;6.574;2023-07-16T09:08:53;5.93;;;1.33;;
57752;SDS011;43583;53.132;6.574;2023-07-16T09:11:20;5.28;;;1.02;;
57752;SDS011;43583;53.132;6.574;2023-07-16T09:13:47;4.15;;;1.92;;
57752;SDS011;43583;53.132;6.574;2023-07-16T09:16:13;4.32;;;1.33;;
57752;SDS011;43583;53.132;6.574;2023-07-16T09:18:41;4.80;;;1.08;;
57752;SDS011;43583;53.132;6.574;2023-07-16T09:21:07;5.10;;;1.73;;
57752;SDS011;43583;53.132;6.574;2023-07-16T09:23:33;3.10;;;1.00;;
57752;SDS011;43583;53.132;6.574;2023-07-16T09:25:59;3.45;;;1.33;;
57752;SDS011;43583;53.132;6.574;2023-07-16T09:28:25;5.63;;;1.40;;
57752;SDS011;43583;53.132;6.574;2023-07-16T09:30:51;2.22;;;0.80;;
57752;SDS011;43583;53.132;6.574;2023-07-16T09:33:18;4.60;;;0.90;;
57752;SDS011;43583;53.132;6.574;2023-07-16T09:35:47;1.90;;;0.93;;
57752;SDS011;43583;53.132;6.574;2023-07-16T09:38:14;4.32;;;1.35;;
57752;SDS011;43583;53.132;6.574;2023-07-16T09:40:40;2.75;;;0.95;;
57752;SDS011;43583;53.132;6.574;2023-07-16T09:43:07;5.93;;;1.17;;
57752;SDS011;43583;53.132;6.574;2023-07-16T09:45:34;4.45;;;1.27;;
57752;SDS011;43583;53.132;6.574;2023-07-16T09:48:00;4.18;;;1.35;;
57752;SDS011;43583;53.132;6.574;2023-07-16T09:50:27;3.70;;;1.05;;
57752;SDS011;43583;53.132;6.574;2023-07-16T09:52:55;2.45;;;1.15;;
57752;SDS011;43583;53.132;6.574;2023-07-16T09:55:22;4.75;;;1.55;;
57752;SDS011;43583;53.132;6.574;2023-07-16T09:57:49;3.38;;;1.10;;
57752;SDS011;43583;53.132;6.574;2023-07-16T10:00:17;3.05;;;1.10;;
57752;SDS011;43583;53.132;6.574;2023-07-16T10:02:45;4.85;;;0.95;;
57752;SDS011;43583;53.132;6.574;2023-07-16T10:07:40;5.40;;;1.75;;
57752;SDS011;43583;53.132;6.574;2023-07-16T10:10:14;3.72;;;1.10;;
57752;SDS011;43583;53.132;6.574;2023-07-16T10:12:42;2.42;;;0.95;;
57752;SDS011;43583;53.132;6.574;2023-07-16T10:15:08;3.50;;;1.15;;
57752;SDS011;43583;53.132;6.574;2023-07-16T10:17:36;5.25;;;1.67;;
57752;SDS011;43583;53.132;6.574;2023-07-16T10:20:05;4.78;;;1.50;;
57752;SDS011;43583;53.132;6.574;2023-07-16T10:22:37;2.83;;;1.40;;
57752;SDS011;43583;53.132;6.574;2023-07-16T10:25:26;3.40;;;1.52;;
57752;SDS011;43583;53.132;6.574;2023-07-16T10:27:51;3.50;;;1.52;;
57752;SDS011;43583;53.132;6.574;2023-07-16T10:30:18;4.25;;;2.25;;
57752;SDS011;43583;53.132;6.574;2023-07-16T10:32:44;4.88;;;1.30;;
57752;SDS011;43583;53.132;6.574;2023-07-16T10:35:13;2.95;;;1.30;;
57752;SDS011;43583;53.132;6.574;2023-07-16T10:37:39;4.20;;;1.10;;
57752;SDS011;43583;53.132;6.574;2023-07-16T10:40:05;2.47;;;0.77;;
57752;SDS011;43583;53.132;6.574;2023-07-16T10:42:36;3.90;;;1.05;;
57752;SDS011;43583;53.132;6.574;2023-07-16T10:45:02;2.92;;;1.13;;
57752;SDS011;43583;53.132;6.574;2023-07-16T10:47:33;3.20;;;1.20;;
57752;SDS011;43583;53.132;6.574;2023-07-16T10:50:00;6.65;;;1.35;;
57752;SDS011;43583;53.132;6.574;2023-07-16T10:52:28;7.95;;;1.20;;
57752;SDS011;43583;53.132;6.574;2023-07-16T10:54:54;3.75;;;1.42;;
57752;SDS011;43583;53.132;6.574;2023-07-16T10:57:23;2.55;;;0.95;;
57752;SDS011;43583;53.132;6.574;2023-07-16T10:59:56;1.83;;;1.00;;
57752;SDS011;43583;53.132;6.574;2023-07-16T11:02:23;3.13;;;1.00;;
57752;SDS011;43583;53.132;6.574;2023-07-16T11:04:50;4.75;;;1.27;;
57752;SDS011;43583;53.132;6.574;2023-07-16T11:07:20;5.57;;;1.33;;
57752;SDS011;43583;53.132;6.574;2023-07-16T11:09:46;5.72;;;1.60;;
57752;SDS011;43583;53.132;6.574;2023-07-16T11:12:14;3.42;;;1.35;;
57752;SDS011;43583;53.132;6.574;2023-07-16T11:14:48;5.32;;;1.40;;
57752;SDS011;43583;53.132;6.574;2023-07-16T11:17:16;3.35;;;1.25;;
57752;SDS011;43583;53.132;6.574;2023-07-16T11:19:48;3.05;;;0.90;;
57752;SDS011;43583;53.132;6.574;2023-07-16T11:22:16;3.80;;;1.05;;
57752;SDS011;43583;53.132;6.574;2023-07-16T11:24:52;4.15;;;0.93;;
57752;SDS011;43583;53.132;6.574;2023-07-16T11:27:22;2.97;;;0.82;;
57752;SDS011;43583;53.132;6.574;2023-07-16T11:29:53;3.70;;;0.95;;
57752;SDS011;43583;53.132;6.574;2023-07-16T11:37:22;2.50;;;0.80;;
57752;SDS011;43583;53.132;6.574;2023-07-16T11:39:49;3.75;;;1.20;;
57752;SDS011;43583;53.132;6.574;2023-07-16T11:42:18;6.05;;;0.98;;
57752;SDS011;43583;53.132;6.574;2023-07-16T11:44:49;5.15;;;1.10;;
57752;SDS011;43583;53.132;6.574;2023-07-16T11:47:14;3.78;;;0.82;;
57752;SDS011;43583;53.132;6.574;2023-07-16T11:49:40;4.00;;;0.85;;
57752;SDS011;43583;53.132;6.574;2023-07-16T11:52:05;4.22;;;1.27;;
57752;SDS011;43583;53.132;6.574;2023-07-16T11:54:32;2.85;;;1.48;;
57752;SDS011;43583;53.132;6.574;2023-07-16T11:56:57;4.15;;;1.08;;
57752;SDS011;43583;53.132;6.574;2023-07-16T11:59:23;2.58;;;1.23;;
57752;SDS011;43583;53.132;6.574;2023-07-16T12:01:48;5.63;;;1.73;;
57752;SDS011;43583;53.132;6.574;2023-07-16T12:04:15;4.38;;;1.20;;
57752;SDS011;43583;53.132;6.574;2023-07-16T12:06:41;3.47;;;0.95;;
57752;SDS011;43583;53.132;6.574;2023-07-16T12:09:07;5.32;;;1.25;;
57752;SDS011;43583;53.132;6.574;2023-07-16T12:11:32;3.70;;;1.10;;
57752;SDS011;43583;53.132;6.574;2023-07-16T12:13:58;3.83;;;1.13;;
57752;SDS011;43583;53.132;6.574;2023-07-16T12:16:23;2.88;;;1.48;;
57752;SDS011;43583;53.132;6.574;2023-07-16T12:18:49;4.35;;;1.10;;
57752;SDS011;43583;53.132;6.574;2023-07-16T12:21:14;5.75;;;1.90;;
57752;SDS011;43583;53.132;6.574;2023-07-16T12:23:40;3.75;;;1.98;;
57752;SDS011;43583;53.132;6.574;2023-07-16T12:26:05;5.78;;;2.03;;
57752;SDS011;43583;53.132;6.574;2023-07-16T12:28:33;3.15;;;1.77;;
57752;SDS011;43583;53.132;6.574;2023-07-16T12:30:59;4.72;;;1.60;;
57752;SDS011;43583;53.132;6.574;2023-07-16T12:33:24;2.65;;;1.40;;
57752;SDS011;43583;53.132;6.574;2023-07-16T12:35:50;3.78;;;1.70;;
57752;SDS011;43583;53.132;6.574;2023-07-16T12:38:15;5.20;;;1.73;;
57752;SDS011;43583;53.132;6.574;2023-07-16T12:40:41;3.05;;;1.35;;
57752;SDS011;43583;53.132;6.574;2023-07-16T12:43:06;4.38;;;1.35;;
57752;SDS011;43583;53.132;6.574;2023-07-16T12:45:32;3.13;;;1.27;;
57752;SDS011;43583;53.132;6.574;2023-07-16T12:47:58;4.05;;;2.42;;
57752;SDS011;43583;53.132;6.574;2023-07-16T12:50:23;5.75;;;2.05;;
57752;SDS011;43583;53.132;6.574;2023-07-16T12:52:50;8.45;;;2.45;;
57752;SDS011;43583;53.132;6.574;2023-07-16T12:55:16;4.88;;;1.48;;
57752;SDS011;43583;53.132;6.574;2023-07-16T12:57:42;4.32;;;1.40;;
57752;SDS011;43583;53.132;6.574;2023-07-16T13:00:08;2.47;;;1.27;;
57752;SDS011;43583;53.132;6.574;2023-07-16T13:02:34;4.32;;;1.77;;
57752;SDS011;43583;53.132;6.574;2023-07-16T13:05:01;3.33;;;0.98;;
57752;SDS011;43583;53.132;6.574;2023-07-16T13:07:27;2.42;;;1.08;;
57752;SDS011;43583;53.132;6.574;2023-07-16T13:09:53;4.30;;;1.15;;
57752;SDS011;43583;53.132;6.574;2023-07-16T13:12:19;3.25;;;0.80;;
57752;SDS011;43583;53.132;6.574;2023-07-16T13:14:44;5.28;;;0.95;;
57752;SDS011;43583;53.132;6.574;2023-07-16T13:17:10;5.28;;;1.08;;
57752;SDS011;43583;53.132;6.574;2023-07-16T13:19:35;5.90;;;1.52;;
57752;SDS011;43583;53.132;6.574;2023-07-16T13:22:01;3.20;;;1.13;;
57752;SDS011;43583;53.132;6.574;2023-07-16T13:24:27;5.18;;;1.35;;
57752;SDS011;43583;53.132;6.574;2023-07-16T13:26:52;2.05;;;1.00;;
57752;SDS011;43583;53.132;6.574;2023-07-16T13:29:18;3.28;;;0.98;;
57752;SDS011;43583;53.132;6.574;2023-07-16T13:31:43;3.63;;;1.02;;
57752;SDS011;43583;53.132;6.574;2023-07-16T13:34:09;3.47;;;0.90;;
57752;SDS011;43583;53.132;6.574;2023-07-16T13:36:34;4.40;;;1.38;;
57752;SDS011;43583;53.132;6.574;2023-07-16T13:39:00;2.88;;;1.10;;
57752;SDS011;43583;53.132;6.574;2023-07-16T13:41:25;5.10;;;1.00;;
57752;SDS011;43583;53.132;6.574;2023-07-16T13:43:51;4.93;;;1.23;;
57752;SDS011;43583;53.132;6.574;2023-07-16T13:46:18;4.15;;;0.50;;
57752;SDS011;43583;53.132;6.574;2023-07-16T13:48:43;5.60;;;0.90;;
57752;SDS011;43583;53.132;6.574;2023-07-16T13:51:09;6.68;;;0.60;;
57752;SDS011;43583;53.132;6.574;2023-07-16T13:53:34;3.33;;;1.00;;
57752;SDS011;43583;53.132;6.574;2023-07-16T13:56:00;3.17;;;0.55;;
57752;SDS011;43583;53.132;6.574;2023-07-16T13:58:25;3.40;;;0.35;;
57752;SDS011;43583;53.132;6.574;2023-07-16T14:00:51;4.10;;;0.60;;
57752;SDS011;43583;53.132;6.574;2023-07-16T14:03:16;3.00;;;0.50;;
57752;SDS011;43583;53.132;6.574;2023-07-16T14:05:42;3.50;;;0.65;;
57752;SDS011;43583;53.132;6.574;2023-07-16T14:08:08;4.50;;;0.70;;
57752;SDS011;43583;53.132;6.574;2023-07-16T14:10:33;3.55;;;0.40;;
57752;SDS011;43583;53.132;6.574;2023-07-16T14:12:59;2.17;;;0.40;;
57752;SDS011;43583;53.132;6.574;2023-07-16T14:15:24;2.50;;;0.75;;
57752;SDS011;43583;53.132;6.574;2023-07-16T14:17:50;7.43;;;0.73;;
57752;SDS011;43583;53.132;6.574;2023-07-16T14:20:16;3.67;;;0.30;;
57752;SDS011;43583;53.132;6.574;2023-07-16T14:22:41;5.63;;;0.50;;
57752;SDS011;43583;53.132;6.574;2023-07-16T14:25:07;5.03;;;0.52;;
57752;SDS011;43583;53.132;6.574;2023-07-16T14:27:34;5.85;;;0.40;;
57752;SDS011;43583;53.132;6.574;2023-07-16T14:29:59;3.50;;;0.20;;
57752;SDS011;43583;53.132;6.574;2023-07-16T14:32:25;3.88;;;0.30;;
57752;SDS011;43583;53.132;6.574;2023-07-16T14:34:51;3.22;;;0.30;;
57752;SDS011;43583;53.132;6.574;2023-07-16T14:37:16;4.43;;;0.28;;
57752;SDS011;43583;53.132;6.574;2023-07-16T14:39:42;4.40;;;0.32;;
57752;SDS011;43583;53.132;6.574;2023-07-16T14:42:08;4.63;;;0.93;;
57752;SDS011;43583;53.132;6.574;2023-07-16T14:44:34;3.45;;;0.38;;
57752;SDS011;43583;53.132;6.574;2023-07-16T14:46:59;6.22;;;0.40;;
57752;SDS011;43583;53.132;6.574;2023-07-16T14:49:25;3.38;;;0.50;;
57752;SDS011;43583;53.132;6.574;2023-07-16T14:51:51;2.65;;;0.25;;
57752;SDS011;43583;53.132;6.574;2023-07-16T14:54:16;2.17;;;0.10;;
57752;SDS011;43583;53.132;6.574;2023-07-16T14:56:42;3.30;;;0.20;;